createdAt,value
2024-02-16T00:01:02.412Z,94134.03
2024-02-16T00:03:29.352Z,94132.03
2024-02-16T00:05:56.440Z,94136.75
2024-02-16T00:08:23.214Z,94127.78
2024-02-16T00:10:49.988Z,94129.69
2024-02-16T00:13:16.713Z,94127.41
2024-02-16T00:15:43.451Z,94127.03
2024-02-16T00:18:10.230Z,94124.72
2024-02-16T00:20:36.977Z,94128.97
2024-02-16T00:23:03.713Z,94124.72
2024-02-16T00:25:30.761Z,94124.69
2024-02-16T00:27:57.493Z,94128.91
2024-02-16T00:30:24.306Z,94135.16
2024-02-16T00:32:51.275Z,94128.56
2024-02-16T00:35:19.115Z,94124.28
2024-02-16T00:37:46.954Z,94127.38
2024-02-16T00:40:13.839Z,94126.19
2024-02-16T00:42:40.756Z,94125.84
2024-02-16T00:45:08.265Z,94131.69
2024-02-16T00:47:35.078Z,94125.47
2024-02-16T00:50:02.049Z,94132.91
2024-02-16T00:52:28.770Z,94124.66
2024-02-16T00:54:55.513Z,94121.16
2024-02-16T00:57:22.258Z,94127.34
2024-02-16T00:59:48.995Z,94133.59
2024-02-16T01:02:17.824Z,94136.69
2024-02-16T01:04:44.573Z,94135.19
2024-02-16T01:07:11.353Z,94135.66
2024-02-16T01:09:38.103Z,94132.16
2024-02-16T01:12:04.969Z,94136.88
2024-02-16T01:14:31.667Z,94130.59
2024-02-16T01:16:58.336Z,94131.00
2024-02-16T01:19:25.129Z,94128.94
2024-02-16T01:21:54.285Z,94129.41
2024-02-16T01:24:22.428Z,94131.34
2024-02-16T01:26:49.485Z,94131.34
2024-02-16T01:29:16.273Z,94121.22
2024-02-16T01:31:42.919Z,94127.38
2024-02-16T01:34:09.748Z,94132.41
2024-02-16T01:36:36.512Z,94123.06
2024-02-16T01:39:03.404Z,94123.75
2024-02-16T01:41:30.227Z,94126.78
2024-02-16T01:43:57.375Z,94125.53
2024-02-16T01:46:24.139Z,94122.47
2024-02-16T01:48:51.801Z,94127.88
2024-02-16T01:51:19.108Z,94124.69
2024-02-16T01:53:47.164Z,94122.72
2024-02-16T01:56:13.937Z,94130.81
2024-02-16T01:58:40.849Z,94128.44
2024-02-16T02:01:07.620Z,94131.03
2024-02-16T02:03:36.168Z,94128.72
2024-02-16T02:06:03.222Z,94126.81
2024-02-16T02:08:30.422Z,94126.03
2024-02-16T02:10:57.273Z,94126.44
2024-02-16T02:13:24.102Z,94119.50
2024-02-16T02:15:50.938Z,94126.53
2024-02-16T02:18:17.902Z,94121.50
2024-02-16T02:20:44.718Z,94124.19
2024-02-16T02:23:11.385Z,94124.25
2024-02-16T02:25:38.085Z,94112.19
2024-02-16T02:28:05.118Z,94120.78
2024-02-16T02:30:31.946Z,94125.03
2024-02-16T02:32:58.887Z,94124.31
2024-02-16T02:35:25.669Z,94121.16
2024-02-16T02:37:52.352Z,94122.75
2024-02-16T02:40:19.246Z,94123.06
2024-02-16T02:42:45.995Z,94114.09
2024-02-16T02:45:12.722Z,94109.78
2024-02-16T02:47:39.587Z,94107.47
2024-02-16T02:50:07.271Z,94109.44
2024-02-16T02:52:33.999Z,94114.06
2024-02-16T02:55:00.670Z,94100.50
2024-02-16T02:57:27.466Z,94092.44
2024-02-16T02:59:54.286Z,94100.88
2024-02-16T03:02:21.046Z,94107.47
2024-02-16T03:04:47.984Z,94103.63
2024-02-16T03:07:15.488Z,94096.31
2024-02-16T03:09:44.436Z,94095.09
2024-02-16T03:12:11.119Z,94096.66
2024-02-16T03:14:38.665Z,94095.91
2024-02-16T03:17:06.579Z,94106.72
2024-02-16T03:19:33.554Z,94100.53
2024-02-16T03:22:00.414Z,94104.00
2024-02-16T03:24:27.137Z,94102.06
2024-02-16T03:26:53.920Z,94100.59
2024-02-16T03:29:20.645Z,94094.38
2024-02-16T03:31:47.351Z,94102.50
2024-02-16T03:34:14.314Z,94097.50
2024-02-16T03:36:41.071Z,94101.00
2024-02-16T03:39:10.338Z,94098.63
2024-02-16T03:41:37.119Z,94100.59
2024-02-16T03:44:03.918Z,94104.50
2024-02-16T03:46:31.245Z,94098.66
2024-02-16T03:48:58.231Z,94111.50
2024-02-16T03:51:25.216Z,94104.91
2024-02-16T03:53:51.931Z,94099.78
2024-02-16T03:56:22.153Z,94105.56
2024-02-16T03:58:49.191Z,94103.53
2024-02-16T04:01:15.975Z,94103.56
2024-02-16T04:03:42.819Z,94098.16
2024-02-16T04:06:09.551Z,94106.75
2024-02-16T04:08:36.256Z,94112.56
2024-02-16T04:11:04.127Z,94114.81
2024-02-16T04:13:30.961Z,94111.28
2024-02-16T04:15:57.745Z,94112.75
2024-02-16T04:18:24.698Z,94112.81
2024-02-16T04:20:51.488Z,94113.94
2024-02-16T04:23:18.158Z,94112.72
2024-02-16T04:25:44.844Z,94112.38
2024-02-16T04:28:11.582Z,94112.00
2024-02-16T04:30:38.355Z,94112.81
2024-02-16T04:33:05.571Z,94115.97
2024-02-16T04:35:32.654Z,94114.09
2024-02-16T04:37:59.331Z,94119.16
2024-02-16T04:40:26.321Z,94120.00
2024-02-16T04:42:53.014Z,94125.47
2024-02-16T04:45:19.970Z,94121.56
2024-02-16T04:47:47.097Z,94123.91
2024-02-16T04:50:15.029Z,94125.13
2024-02-16T04:52:42.287Z,94121.25
2024-02-16T04:55:09.387Z,94127.13
2024-02-16T04:57:36.319Z,94117.38
2024-02-16T05:00:04.328Z,94131.00
2024-02-16T05:02:31.060Z,94123.66
2024-02-16T05:04:59.326Z,94126.41
2024-02-16T05:07:27.355Z,94138.41
2024-02-16T05:09:59.108Z,94136.09
2024-02-16T05:12:26.569Z,94123.25
2024-02-16T05:14:57.204Z,94127.44
2024-02-16T05:17:27.665Z,94134.47
2024-02-16T05:19:55.164Z,94134.09
2024-02-16T05:22:23.169Z,94136.84
2024-02-16T05:24:50.050Z,94140.38
2024-02-16T05:27:17.064Z,94141.53
2024-02-16T05:29:43.783Z,94138.00
2024-02-16T05:32:11.709Z,94122.84
2024-02-16T05:34:38.919Z,94136.47
2024-02-16T05:37:07.564Z,94133.84
2024-02-16T05:39:37.040Z,94134.25
2024-02-16T05:42:04.132Z,94129.59
2024-02-16T05:44:31.248Z,94131.50
2024-02-16T05:46:58.793Z,94135.38
2024-02-16T05:49:25.992Z,94134.66
2024-02-16T05:52:11.202Z,94138.94
2024-02-16T05:54:39.166Z,94143.22
2024-02-16T05:57:06.713Z,94139.28
2024-02-16T05:59:33.817Z,94140.06
2024-02-16T06:02:00.442Z,94143.56
2024-02-16T06:04:27.753Z,94147.09
2024-02-16T06:06:55.507Z,94144.34
2024-02-16T06:09:22.373Z,94142.06
2024-02-16T06:11:49.916Z,94154.13
2024-02-16T06:14:20.276Z,94149.84
2024-02-16T06:16:47.293Z,94149.03
2024-02-16T06:19:30.232Z,94154.91
2024-02-16T06:21:57.504Z,94151.38
2024-02-16T06:24:24.739Z,94149.78
2024-02-16T06:26:55.805Z,94163.03
2024-02-16T06:29:24.205Z,94169.28
2024-02-16T06:31:51.022Z,94157.59
2024-02-16T06:34:17.882Z,94175.16
2024-02-16T06:36:44.714Z,94170.13
2024-02-16T06:39:12.601Z,94173.97
2024-02-16T06:41:40.297Z,94179.03
2024-02-16T06:44:07.030Z,94177.88
2024-02-16T06:46:34.379Z,94181.38
2024-02-16T06:49:01.146Z,94189.16
2024-02-16T06:51:29.667Z,94184.81
2024-02-16T06:53:56.419Z,94185.66
2024-02-16T06:56:23.451Z,94194.63
2024-02-16T06:58:50.269Z,94192.69
2024-02-16T07:01:19.637Z,94197.03
2024-02-16T07:03:46.697Z,94195.53
2024-02-16T07:06:15.137Z,94197.53
2024-02-16T07:08:42.477Z,94189.41
2024-02-16T07:11:09.827Z,94199.13
2024-02-16T07:13:38.880Z,94203.06
2024-02-16T07:16:07.816Z,94211.25
2024-02-16T07:18:35.043Z,94217.09
2024-02-16T07:21:02.937Z,94217.13
2024-02-16T07:23:30.159Z,94216.75
2024-02-16T07:25:59.483Z,94219.16
2024-02-16T07:28:27.292Z,94217.59
2024-02-16T07:30:54.404Z,94217.66
2024-02-16T07:33:21.384Z,94217.66
2024-02-16T07:35:48.763Z,94226.63
2024-02-16T07:38:15.544Z,94227.06
2024-02-16T07:40:42.216Z,94230.22
2024-02-16T07:43:09.670Z,94231.00
2024-02-16T07:45:36.513Z,94225.97
2024-02-16T07:48:07.986Z,94228.34
2024-02-16T07:50:35.260Z,94228.00
2024-02-16T07:53:02.223Z,94229.19
2024-02-16T07:55:29.315Z,94234.28
2024-02-16T07:57:56.053Z,94225.75
2024-02-16T08:00:23.048Z,94231.59
2024-02-16T08:02:58.180Z,94235.94
2024-02-16T08:05:26.911Z,94235.97
2024-02-16T08:07:54.326Z,94241.44
2024-02-16T08:10:26.491Z,94236.78
2024-02-16T08:12:53.828Z,94236.38
2024-02-16T08:15:29.179Z,94239.94
2024-02-16T08:17:56.161Z,94241.88
2024-02-16T08:20:23.164Z,94234.06
2024-02-16T08:22:58.712Z,94238.72
2024-02-16T08:25:25.788Z,94248.50
2024-02-16T08:27:52.681Z,94252.00
2024-02-16T08:30:26.554Z,94253.59
2024-02-16T08:32:55.258Z,94257.84
2024-02-16T08:35:22.413Z,94253.97
2024-02-16T08:37:49.273Z,94252.06
2024-02-16T08:40:16.580Z,94256.34
2024-02-16T08:42:43.778Z,94255.97
2024-02-16T08:45:11.460Z,94253.59
2024-02-16T08:47:40.144Z,94262.16
2024-02-16T08:50:08.275Z,94276.22
2024-02-16T08:52:35.570Z,94254.66
2024-02-16T08:55:02.401Z,94251.50
2024-02-16T08:57:40.928Z,94258.09
2024-02-16T09:00:08.870Z,94259.19
2024-02-16T09:05:30.960Z,94267.69
2024-02-16T09:07:57.685Z,94262.56
2024-02-16T09:10:24.359Z,94271.13
2024-02-16T09:12:52.926Z,94274.63
2024-02-16T09:15:19.584Z,94272.69
2024-02-16T09:17:46.679Z,94271.53
2024-02-16T09:20:13.656Z,94279.75
2024-02-16T09:22:46.827Z,94279.06
2024-02-16T09:25:15.517Z,94292.75
2024-02-16T09:27:45.981Z,94297.41
2024-02-16T09:30:13.924Z,94294.66
2024-02-16T09:32:41.793Z,94303.59
2024-02-16T09:35:08.703Z,94304.38
2024-02-16T09:37:36.890Z,94309.84
2024-02-16T09:40:04.986Z,94308.25
2024-02-16T09:42:31.635Z,94312.16
2024-02-16T09:44:58.280Z,94316.44
2024-02-16T09:47:34.146Z,94317.16
2024-02-16T09:50:01.041Z,94321.41
2024-02-16T09:52:28.135Z,94326.84
2024-02-16T09:54:54.751Z,94332.25
2024-02-16T09:57:22.056Z,94326.75
2024-02-16T09:59:48.752Z,94331.34
2024-02-16T10:02:15.357Z,94331.66
2024-02-16T10:04:42.448Z,94324.81
2024-02-16T10:07:12.632Z,94333.66
2024-02-16T10:09:41.878Z,94329.16
2024-02-16T10:12:09.992Z,94338.13
2024-02-16T10:14:36.617Z,94338.34
2024-02-16T10:17:05.065Z,94339.03
2024-02-16T10:19:40.717Z,94343.09
2024-02-16T10:22:14.144Z,94331.41
2024-02-16T10:24:42.327Z,94337.00
2024-02-16T10:27:20.219Z,94342.34
2024-02-16T10:29:54.991Z,94339.50
2024-02-16T10:32:21.774Z,94339.59
2024-02-16T10:34:50.696Z,94342.41
2024-02-16T10:37:18.342Z,94338.34
2024-02-16T10:39:46.376Z,94336.72
2024-02-16T10:42:15.561Z,94335.47
2024-02-16T10:44:43.797Z,94336.44
2024-02-16T10:47:10.632Z,94335.03
2024-02-16T10:49:37.650Z,94337.91
2024-02-16T10:52:07.527Z,94337.19
2024-02-16T10:54:35.462Z,94334.75
2024-02-16T10:57:02.271Z,94340.28
2024-02-16T10:59:41.835Z,94339.25
2024-02-16T11:02:08.477Z,94346.59
2024-02-16T11:04:42.119Z,94342.19
2024-02-16T11:07:26.945Z,94341.81
2024-02-16T11:09:53.684Z,94343.50
2024-02-16T11:12:20.351Z,94352.19
2024-02-16T11:14:55.985Z,94350.22
2024-02-16T11:17:24.458Z,94348.91
2024-02-16T11:19:52.147Z,94349.81
2024-02-16T11:22:20.797Z,94357.88
2024-02-16T11:24:54.533Z,94353.00
2024-02-16T11:27:23.435Z,94351.34
2024-02-16T11:29:51.361Z,94357.06
2024-02-16T11:32:20.403Z,94350.34
2024-02-16T11:34:47.517Z,94352.88
2024-02-16T11:37:15.804Z,94357.88
2024-02-16T11:39:45.982Z,94357.44
2024-02-16T11:42:14.968Z,94358.72
2024-02-16T11:44:55.836Z,94350.09
2024-02-16T11:47:27.655Z,94359.81
2024-02-16T11:50:01.878Z,94351.28
2024-02-16T11:52:28.683Z,94358.59
2024-02-16T11:54:57.790Z,94363.03
2024-02-16T11:57:25.981Z,94358.38
2024-02-16T11:59:53.373Z,94365.53
2024-02-16T12:02:21.970Z,94367.94
2024-02-16T12:04:55.439Z,94364.59
2024-02-16T12:07:29.665Z,94370.75
2024-02-16T12:10:00.438Z,94368.41
2024-02-16T12:12:28.527Z,94363.88
2024-02-16T12:14:56.173Z,94367.88
2024-02-16T12:17:23.273Z,94370.91
2024-02-16T12:19:53.368Z,94376.81
2024-02-16T12:22:21.566Z,94380.06
2024-02-16T12:24:49.198Z,94386.19
2024-02-16T12:27:15.948Z,94378.38
2024-02-16T12:29:42.579Z,94385.06
2024-02-16T12:32:10.614Z,94390.59
2024-02-16T12:34:40.758Z,94387.41
2024-02-16T12:37:12.553Z,94389.44
2024-02-16T12:39:40.486Z,94398.41
2024-02-16T12:42:07.819Z,94391.28
2024-02-16T12:44:34.368Z,94396.09
2024-02-16T12:47:00.980Z,94398.84
2024-02-16T12:49:27.659Z,94388.84
2024-02-16T12:51:55.578Z,94394.03
2024-02-16T12:54:23.527Z,94394.41
2024-02-16T12:56:51.035Z,94393.72
2024-02-16T12:59:18.109Z,94394.59
2024-02-16T13:01:45.281Z,94395.03
2024-02-16T13:04:12.149Z,94394.53
2024-02-16T13:06:39.027Z,94387.19
2024-02-16T13:09:06.830Z,94394.34
2024-02-16T13:11:35.378Z,94393.38
2024-02-16T13:14:02.229Z,94399.84
2024-02-16T13:16:28.886Z,94392.00
2024-02-16T13:18:55.533Z,94396.16
2024-02-16T13:21:22.481Z,94400.41
2024-02-16T13:23:49.415Z,94397.66
2024-02-16T13:26:16.150Z,94397.81
2024-02-16T13:28:42.758Z,94399.56
2024-02-16T13:31:11.257Z,94400.00
2024-02-16T13:33:38.447Z,94401.38
2024-02-16T13:36:06.600Z,94395.09
2024-02-16T13:38:33.288Z,94397.38
2024-02-16T13:40:59.958Z,94402.22
2024-02-16T13:43:27.225Z,94401.47
2024-02-16T13:45:55.590Z,94398.88
2024-02-16T13:48:23.107Z,94398.59
2024-02-16T13:50:50.891Z,94407.75
2024-02-16T13:53:21.337Z,94409.03
2024-02-16T13:55:48.974Z,94418.66
2024-02-16T13:58:15.806Z,94427.31
2024-02-16T14:00:42.599Z,94417.59
2024-02-16T14:03:15.813Z,94425.13
2024-02-16T14:05:45.545Z,94420.34
2024-02-16T14:08:13.914Z,94425.03
2024-02-16T14:10:40.708Z,94418.78
2024-02-16T14:13:07.568Z,94428.13
2024-02-16T14:15:34.242Z,94432.06
2024-02-16T14:18:06.338Z,94425.00
2024-02-16T14:20:38.738Z,94427.84
2024-02-16T14:23:09.023Z,94430.97
2024-02-16T14:25:38.094Z,94433.28
2024-02-16T14:28:05.247Z,94436.84
2024-02-16T14:30:33.544Z,94431.63
2024-02-16T14:33:00.653Z,94436.66
2024-02-16T14:35:27.365Z,94440.75
2024-02-16T14:37:54.022Z,94435.50
2024-02-16T14:40:20.630Z,94435.06
2024-02-16T14:42:47.264Z,94437.78
2024-02-16T14:45:20.982Z,94441.28
2024-02-16T14:47:51.885Z,94431.94
2024-02-16T14:50:18.769Z,94439.16
2024-02-16T14:52:46.537Z,94435.22
2024-02-16T14:55:14.673Z,94440.84
2024-02-16T14:57:42.169Z,94437.34
2024-02-16T15:00:10.592Z,94441.22
2024-02-16T15:02:38.520Z,94443.50
2024-02-16T15:05:06.613Z,94447.81
2024-02-16T15:07:33.348Z,94449.38
2024-02-16T15:10:00.612Z,94446.16
2024-02-16T15:12:28.533Z,94447.41
2024-02-16T15:14:56.132Z,94446.22
2024-02-16T15:17:23.107Z,94449.38
2024-02-16T15:19:50.039Z,94448.25
2024-02-16T15:22:16.877Z,94455.91
2024-02-16T15:24:43.845Z,94454.31
2024-02-16T15:27:11.548Z,94458.63
2024-02-16T15:29:38.268Z,94462.69
2024-02-16T15:32:05.148Z,94461.56
2024-02-16T15:34:31.946Z,94477.31
2024-02-16T15:36:59.731Z,94470.72
2024-02-16T15:39:26.615Z,94471.50
2024-02-16T15:41:56.464Z,94470.78
2024-02-16T15:44:23.354Z,94471.97
2024-02-16T15:46:49.991Z,94479.09
2024-02-16T15:49:16.784Z,94482.69
2024-02-16T15:51:43.618Z,94488.66
2024-02-16T15:54:10.331Z,94494.94
2024-02-16T15:56:37.033Z,94493.06
2024-02-16T15:59:03.767Z,94495.50
2024-02-16T16:01:31.641Z,94500.69
2024-02-16T16:03:58.407Z,94505.47
2024-02-16T16:06:25.300Z,94504.31
2024-02-16T16:08:52.697Z,94508.28
2024-02-16T16:11:20.181Z,94507.84
2024-02-16T16:13:47.064Z,94509.06
2024-02-16T16:16:13.971Z,94510.28
2024-02-16T16:18:40.649Z,94507.91
2024-02-16T16:21:07.595Z,94508.69
2024-02-16T16:23:38.847Z,94510.63
2024-02-16T16:26:05.680Z,94504.00
2024-02-16T16:28:32.986Z,94512.28
2024-02-16T16:31:01.707Z,94515.84
2024-02-16T16:33:28.797Z,94514.28
2024-02-16T16:35:55.964Z,94509.59
2024-02-16T16:38:22.819Z,94523.81
2024-02-16T16:40:49.865Z,94520.31
2024-02-16T16:43:17.295Z,94534.84
2024-02-16T16:45:44.023Z,94537.28
2024-02-16T16:48:11.024Z,94534.53
2024-02-16T16:50:38.129Z,94543.94
2024-02-16T16:53:05.685Z,94547.84
2024-02-16T16:55:32.614Z,94543.56
2024-02-16T16:57:59.373Z,94547.88
2024-02-16T17:00:26.176Z,94550.63
2024-02-16T17:02:52.972Z,94551.41
2024-02-16T17:05:19.609Z,94563.94
2024-02-16T17:07:49.501Z,94565.88
2024-02-16T17:10:16.952Z,94570.59
2024-02-16T17:12:45.519Z,94572.94
2024-02-16T17:15:19.174Z,94573.75
2024-02-16T17:17:52.116Z,94569.81
2024-02-16T17:20:22.549Z,94583.13
2024-02-16T17:22:50.339Z,94579.97
2024-02-16T17:25:17.018Z,94593.69
2024-02-16T17:27:45.459Z,94593.28
2024-02-16T17:30:13.014Z,94601.09
2024-02-16T17:32:41.935Z,94601.09
2024-02-16T17:35:09.720Z,94608.13
2024-02-16T17:37:36.832Z,94603.06
2024-02-16T17:40:04.948Z,94611.66
2024-02-16T17:42:31.645Z,94611.66
2024-02-16T17:44:59.772Z,94617.16
2024-02-16T17:47:26.476Z,94613.59
2024-02-16T17:49:53.302Z,94621.81
2024-02-16T17:52:20.398Z,94621.78
2024-02-16T17:54:47.051Z,94626.91
2024-02-16T17:57:13.656Z,94624.16
2024-02-16T17:59:40.299Z,94621.00
2024-02-16T18:02:17.174Z,94625.69
2024-02-16T18:04:52.364Z,94630.41
2024-02-16T18:07:19.218Z,94631.56
2024-02-16T18:09:46.827Z,94637.84
2024-02-16T18:12:17.749Z,94638.59
2024-02-16T18:14:45.239Z,94640.16
2024-02-16T18:17:13.940Z,94646.41
2024-02-16T18:19:41.209Z,94650.28
2024-02-16T18:22:11.146Z,94658.09
2024-02-16T18:24:38.167Z,94651.81
2024-02-16T18:27:05.559Z,94656.88
2024-02-16T18:29:32.361Z,94651.38
2024-02-16T18:31:59.007Z,94658.41
2024-02-16T18:34:25.809Z,94653.31
2024-02-16T18:36:53.275Z,94649.75
2024-02-16T18:39:20.780Z,94656.00
2024-02-16T18:41:47.930Z,94664.19
2024-02-16T18:44:16.494Z,94654.34
2024-02-16T18:46:43.909Z,94659.84
2024-02-16T18:49:11.294Z,94663.00
2024-02-16T18:51:38.640Z,94666.88
2024-02-16T18:54:07.005Z,94662.56
2024-02-16T18:56:33.757Z,94673.09
2024-02-16T18:59:01.371Z,94671.47
2024-02-16T19:01:28.572Z,94681.59
2024-02-16T19:03:55.483Z,94679.25
2024-02-16T19:06:22.416Z,94683.19
2024-02-16T19:08:49.188Z,94683.56
2024-02-16T19:11:16.044Z,94684.34
2024-02-16T19:13:42.870Z,94679.66
2024-02-16T19:16:09.459Z,94680.47
2024-02-16T19:18:37.167Z,94690.59
2024-02-16T19:21:07.715Z,94685.09
2024-02-16T19:23:35.427Z,94689.31
2024-02-16T19:26:02.738Z,94691.34
2024-02-16T19:28:30.238Z,94694.41
2024-02-16T19:30:58.170Z,94696.41
2024-02-16T19:33:25.207Z,94704.28
2024-02-16T19:35:53.402Z,94701.13
2024-02-16T19:38:20.026Z,94702.38
2024-02-16T19:40:46.772Z,94712.06
2024-02-16T19:43:15.396Z,94703.06
2024-02-16T19:45:42.287Z,94711.28
2024-02-16T19:48:09.211Z,94713.25
2024-02-16T19:50:35.900Z,94712.44
2024-02-16T19:53:02.704Z,94719.88
2024-02-16T19:55:29.629Z,94718.75
2024-02-16T19:57:56.984Z,94722.59
2024-02-16T20:00:24.642Z,94726.44
2024-02-16T20:02:53.293Z,94729.19
2024-02-16T20:05:23.582Z,94733.09
2024-02-16T20:07:50.606Z,94736.94
2024-02-16T20:10:17.765Z,94740.50
2024-02-16T20:12:44.730Z,94736.53
2024-02-16T20:15:11.735Z,94739.97
2024-02-16T20:17:38.942Z,94742.78
2024-02-16T20:20:06.669Z,94741.22
2024-02-16T20:22:34.167Z,94739.66
2024-02-16T20:25:01.443Z,94745.81
2024-02-16T20:27:28.567Z,94748.56
2024-02-16T20:29:55.941Z,94748.19
2024-02-16T20:32:23.530Z,94751.31
2024-02-16T20:34:50.419Z,94752.91
2024-02-16T20:37:17.166Z,94758.78
2024-02-16T20:39:43.796Z,94756.78
2024-02-16T20:42:10.465Z,94755.59
2024-02-16T20:44:38.456Z,94752.53
2024-02-16T20:47:07.429Z,94756.41
2024-02-16T20:49:34.729Z,94754.34
2024-02-16T20:52:01.329Z,94756.63
2024-02-16T20:54:31.277Z,94754.84
2024-02-16T20:56:58.234Z,94761.50
2024-02-16T20:59:25.007Z,94763.09
2024-02-16T21:01:51.588Z,94765.41
2024-02-16T21:04:34.717Z,94774.03
2024-02-16T21:07:02.958Z,94782.56
2024-02-16T21:09:29.813Z,94783.72
2024-02-16T21:11:56.839Z,94785.28
2024-02-16T21:14:23.918Z,94789.97
2024-02-16T21:16:51.099Z,94788.81
2024-02-16T21:19:23.968Z,94796.94
2024-02-16T21:21:50.783Z,94792.03
2024-02-16T21:24:21.563Z,94802.97
2024-02-16T21:26:49.647Z,94803.63
2024-02-16T21:29:17.521Z,94806.81
2024-02-16T21:31:45.503Z,94804.09
2024-02-16T21:34:13.482Z,94813.03
2024-02-16T21:36:40.790Z,94817.66
2024-02-16T21:39:08.258Z,94816.84
2024-02-16T21:41:35.848Z,94816.19
2024-02-16T21:44:04.648Z,94821.94
2024-02-16T21:46:32.898Z,94823.53
2024-02-16T21:49:04.951Z,94823.88
2024-02-16T21:51:33.803Z,94825.53
2024-02-16T21:54:00.878Z,94826.75
2024-02-16T21:56:27.615Z,94830.69
2024-02-16T21:58:56.203Z,94828.75
2024-02-16T22:01:24.116Z,94840.34
2024-02-16T22:03:52.383Z,94835.69
2024-02-16T22:06:27.659Z,94839.97
2024-02-16T22:08:54.933Z,94835.69
2024-02-16T22:11:22.990Z,94843.88
2024-02-16T22:13:50.286Z,94847.81
2024-02-16T22:16:17.914Z,94843.47
2024-02-16T22:18:46.146Z,94844.69
2024-02-16T22:21:13.579Z,94853.69
2024-02-16T22:23:41.025Z,94852.50
2024-02-16T22:26:08.826Z,94857.59
2024-02-16T22:28:35.706Z,94860.72
2024-02-16T22:31:02.606Z,94860.25
2024-02-16T22:33:29.690Z,94863.72
2024-02-16T22:35:58.744Z,94867.91
2024-02-16T22:38:25.517Z,94868.41
2024-02-16T22:40:52.491Z,94873.03
2024-02-16T22:43:19.122Z,94880.16
2024-02-16T22:45:45.961Z,94880.19
2024-02-16T22:48:15.236Z,94875.16
2024-02-16T22:50:43.796Z,94885.72
2024-02-16T22:53:10.996Z,94887.19
2024-02-16T22:55:38.813Z,94885.63
2024-02-16T22:58:06.866Z,94887.94
2024-02-16T23:00:42.553Z,94884.34
2024-02-16T23:03:13.217Z,94896.13
2024-02-16T23:05:40.657Z,94889.97
2024-02-16T23:08:08.396Z,94895.41
2024-02-16T23:10:35.338Z,94890.78
2024-02-16T23:13:03.599Z,94888.84
2024-02-16T23:15:30.834Z,94889.22
2024-02-16T23:17:57.490Z,94894.31
2024-02-16T23:20:24.089Z,94893.13
2024-02-16T23:23:11.578Z,94898.91
2024-02-16T23:25:45.155Z,94886.81
2024-02-16T23:28:16.064Z,94893.13
2024-02-16T23:30:43.873Z,94893.84
2024-02-16T23:33:14.388Z,94893.41
2024-02-16T23:35:41.479Z,94893.38
2024-02-16T23:38:11.309Z,94908.59
2024-02-16T23:40:39.082Z,94899.66
2024-02-16T23:43:05.963Z,94902.41
2024-02-16T23:45:35.671Z,94898.91
2024-02-16T23:48:02.794Z,94910.13
2024-02-16T23:50:32.042Z,94907.44
2024-02-16T23:52:59.365Z,94909.03
2024-02-16T23:55:26.496Z,94907.75
2024-02-16T23:57:54.168Z,94912.50
